sensor_id;sensor_type;location;lat;lon;timestamp;P1;P2;P0
76784;PMS7003;66893;44.316;0.092;2023-02-01T00:01:48;16.75;15.50;12.00
76784;PMS7003;66893;44.316;0.092;2023-02-01T00:04:14;15.75;14.75;10.75
76784;PMS7003;66893;44.316;0.092;2023-02-01T00:06:39;16.25;14.75;9.75
76784;PMS7003;66893;44.316;0.092;2023-02-01T00:09:05;16.25;13.25;10.50
76784;PMS7003;66893;44.316;0.092;2023-02-01T00:11:30;13.25;12.75;10.25
76784;PMS7003;66893;44.316;0.092;2023-02-01T00:13:56;15.25;13.00;9.50
76784;PMS7003;66893;44.316;0.092;2023-02-01T00:16:26;12.50;11.75;9.00
76784;PMS7003;66893;44.316;0.092;2023-02-01T00:18:56;14.00;12.25;9.00
76784;PMS7003;66893;44.316;0.092;2023-02-01T00:21:24;13.00;12.25;10.00
76784;PMS7003;66893;44.316;0.092;2023-02-01T00:23:50;12.50;12.00;9.25
76784;PMS7003;66893;44.316;0.092;2023-02-01T00:28:57;12.50;10.00;8.00
76784;PMS7003;66893;44.316;0.092;2023-02-01T00:31:24;14.00;13.00;9.00
76784;PMS7003;66893;44.316;0.092;2023-02-01T00:33:49;10.50;9.00;7.00
76784;PMS7003;66893;44.316;0.092;2023-02-01T00:36:15;11.50;9.00;7.50
76784;PMS7003;66893;44.316;0.092;2023-02-01T00:38:41;11.50;11.25;8.00
76784;PMS7003;66893;44.316;0.092;2023-02-01T00:41:09;12.25;10.25;9.00
76784;PMS7003;66893;44.316;0.092;2023-02-01T00:43:36;9.50;8.50;6.75
76784;PMS7003;66893;44.316;0.092;2023-02-01T00:46:01;12.25;9.50;7.25
76784;PMS7003;66893;44.316;0.092;2023-02-01T00:48:27;10.75;10.75;7.75
76784;PMS7003;66893;44.316;0.092;2023-02-01T00:50:53;8.00;8.00;5.00
76784;PMS7003;66893;44.316;0.092;2023-02-01T00:53:18;8.00;8.00;5.00
76784;PMS7003;66893;44.316;0.092;2023-02-01T00:55:47;7.75;7.75;6.00
76784;PMS7003;66893;44.316;0.092;2023-02-01T00:58:13;8.75;8.75;7.25
76784;PMS7003;66893;44.316;0.092;2023-02-01T01:00:39;10.75;10.00;7.50
76784;PMS7003;66893;44.316;0.092;2023-02-01T01:03:05;9.00;9.00;7.00
76784;PMS7003;66893;44.316;0.092;2023-02-01T01:05:45;9.50;9.50;8.00
76784;PMS7003;66893;44.316;0.092;2023-02-01T01:08:12;14.00;12.25;8.50
76784;PMS7003;66893;44.316;0.092;2023-02-01T01:10:38;10.50;10.50;8.00
76784;PMS7003;66893;44.316;0.092;2023-02-01T01:13:04;11.50;10.00;8.00
76784;PMS7003;66893;44.316;0.092;2023-02-01T01:15:29;9.00;9.00;6.50
76784;PMS7003;66893;44.316;0.092;2023-02-01T01:17:55;12.75;11.00;8.00
76784;PMS7003;66893;44.316;0.092;2023-02-01T01:20:20;10.75;10.75;7.75
76784;PMS7003;66893;44.316;0.092;2023-02-01T01:22:46;10.25;10.25;8.00
76784;PMS7003;66893;44.316;0.092;2023-02-01T01:25:13;10.00;9.50;6.75
76784;PMS7003;66893;44.316;0.092;2023-02-01T01:27:38;11.50;11.50;9.50
76784;PMS7003;66893;44.316;0.092;2023-02-01T01:30:04;15.50;14.00;10.00
76784;PMS7003;66893;44.316;0.092;2023-02-01T01:32:30;18.50;14.00;10.50
76784;PMS7003;66893;44.316;0.092;2023-02-01T01:34:55;17.00;16.50;11.00
76784;PMS7003;66893;44.316;0.092;2023-02-01T01:37:21;13.75;11.75;9.00
76784;PMS7003;66893;44.316;0.092;2023-02-01T01:39:46;16.00;14.75;10.25
76784;PMS7003;66893;44.316;0.092;2023-02-01T01:42:12;23.75;17.75;11.75
76784;PMS7003;66893;44.316;0.092;2023-02-01T01:47:31;18.00;16.00;11.25
76784;PMS7003;66893;44.316;0.092;2023-02-01T01:50:10;18.50;14.75;10.00
76784;PMS7003;66893;44.316;0.092;2023-02-01T01:52:41;21.25;15.25;10.00
76784;PMS7003;66893;44.316;0.092;2023-02-01T01:55:09;16.00;16.00;12.00
76784;PMS7003;66893;44.316;0.092;2023-02-01T01:57:36;19.00;14.50;9.25
76784;PMS7003;66893;44.316;0.092;2023-02-01T02:00:13;22.00;17.25;12.00
76784;PMS7003;66893;44.316;0.092;2023-02-01T02:02:42;16.25;12.75;8.75
76784;PMS7003;66893;44.316;0.092;2023-02-01T02:05:11;17.00;13.75;8.75
76784;PMS7003;66893;44.316;0.092;2023-02-01T02:07:42;18.00;14.00;10.00
76784;PMS7003;66893;44.316;0.092;2023-02-01T02:10:15;13.50;12.50;9.50
76784;PMS7003;66893;44.316;0.092;2023-02-01T02:12:42;19.50;14.00;9.00
76784;PMS7003;66893;44.316;0.092;2023-02-01T02:15:10;16.00;13.25;10.75
76784;PMS7003;66893;44.316;0.092;2023-02-01T02:18:01;19.25;14.00;8.50
76784;PMS7003;66893;44.316;0.092;2023-02-01T02:37:11;15.75;12.25;8.25
76784;PMS7003;66893;44.316;0.092;2023-02-01T02:39:15;11.75;11.75;7.75
76784;PMS7003;66893;44.316;0.092;2023-02-01T02:41:58;12.75;10.75;7.00
76784;PMS7003;66893;44.316;0.092;2023-02-01T02:50:20;12.00;10.50;7.00
76784;PMS7003;66893;44.316;0.092;2023-02-01T02:53:15;8.50;6.75;5.00
76784;PMS7003;66893;44.316;0.092;2023-02-01T02:56:02;9.25;7.50;5.50
76784;PMS7003;66893;44.316;0.092;2023-02-01T02:58:49;9.25;7.75;5.00
76784;PMS7003;66893;44.316;0.092;2023-02-01T03:01:34;9.00;7.00;5.75
76784;PMS7003;66893;44.316;0.092;2023-02-01T03:04:19;10.25;8.00;6.00
76784;PMS7003;66893;44.316;0.092;2023-02-01T03:06:46;11.00;8.25;6.25
76784;PMS7003;66893;44.316;0.092;2023-02-01T03:09:54;10.50;7.75;5.25
76784;PMS7003;66893;44.316;0.092;2023-02-01T03:12:03;8.25;6.75;5.00
76784;PMS7003;66893;44.316;0.092;2023-02-01T03:14:56;7.50;7.50;5.00
76784;PMS7003;66893;44.316;0.092;2023-02-01T03:17:32;7.75;6.75;5.25
76784;PMS7003;66893;44.316;0.092;2023-02-01T03:20:03;6.50;5.25;4.00
76784;PMS7003;66893;44.316;0.092;2023-02-01T03:22:31;8.50;6.50;4.25
76784;PMS7003;66893;44.316;0.092;2023-02-01T03:25:06;7.50;7.50;5.00
76784;PMS7003;66893;44.316;0.092;2023-02-01T03:30:37;7.00;6.75;4.25
76784;PMS7003;66893;44.316;0.092;2023-02-01T03:33:07;7.25;5.25;4.50
76784;PMS7003;66893;44.316;0.092;2023-02-01T03:39:09;5.50;4.75;3.25
76784;PMS7003;66893;44.316;0.092;2023-02-01T03:41:50;5.50;5.00;4.00
76784;PMS7003;66893;44.316;0.092;2023-02-01T03:44:22;5.75;4.75;3.75
76784;PMS7003;66893;44.316;0.092;2023-02-01T03:49:29;6.00;4.25;3.50
76784;PMS7003;66893;44.316;0.092;2023-02-01T03:52:00;4.25;4.25;4.00
76784;PMS7003;66893;44.316;0.092;2023-02-01T03:54:28;7.25;5.00;3.25
76784;PMS7003;66893;44.316;0.092;2023-02-01T03:56:56;3.75;3.75;3.25
76784;PMS7003;66893;44.316;0.092;2023-02-01T03:59:25;8.25;5.00;4.00
76784;PMS7003;66893;44.316;0.092;2023-02-01T04:01:50;6.00;4.00;3.00
76784;PMS7003;66893;44.316;0.092;2023-02-01T04:04:16;4.00;4.00;3.00
76784;PMS7003;66893;44.316;0.092;2023-02-01T04:06:50;4.00;3.00;2.00
76784;PMS7003;66893;44.316;0.092;2023-02-01T04:09:16;4.00;4.00;3.00
76784;PMS7003;66893;44.316;0.092;2023-02-01T04:11:43;8.00;4.00;4.00
76784;PMS7003;66893;44.316;0.092;2023-02-01T04:14:08;3.75;3.75;3.00
76784;PMS7003;66893;44.316;0.092;2023-02-01T04:16:34;4.25;3.75;3.00
76784;PMS7003;66893;44.316;0.092;2023-02-01T04:19:01;7.00;4.00;3.00
76784;PMS7003;66893;44.316;0.092;2023-02-01T04:21:27;4.00;4.00;3.00
76784;PMS7003;66893;44.316;0.092;2023-02-01T04:23:53;5.75;4.00;3.50
76784;PMS7003;66893;44.316;0.092;2023-02-01T04:26:19;5.50;4.00;3.00
76784;PMS7003;66893;44.316;0.092;2023-02-01T04:28:45;4.75;4.00;3.00
76784;PMS7003;66893;44.316;0.092;2023-02-01T04:31:13;4.00;4.00;3.00
76784;PMS7003;66893;44.316;0.092;2023-02-01T04:33:39;5.75;3.25;3.00
76784;PMS7003;66893;44.316;0.092;2023-02-01T04:36:05;4.00;4.00;3.25
76784;PMS7003;66893;44.316;0.092;2023-02-01T04:38:31;4.50;4.50;4.00
76784;PMS7003;66893;44.316;0.092;2023-02-01T04:40:57;6.25;4.00;3.75
76784;PMS7003;66893;44.316;0.092;2023-02-01T04:43:23;3.50;3.50;3.00
76784;PMS7003;66893;44.316;0.092;2023-02-01T04:45:49;5.00;4.00;3.25
76784;PMS7003;66893;44.316;0.092;2023-02-01T04:48:18;4.50;4.00;2.25
76784;PMS7003;66893;44.316;0.092;2023-02-01T04:50:45;6.00;4.00;3.00
76784;PMS7003;66893;44.316;0.092;2023-02-01T04:53:15;5.50;4.00;3.50
76784;PMS7003;66893;44.316;0.092;2023-02-01T04:55:41;4.50;4.25;3.00
76784;PMS7003;66893;44.316;0.092;2023-02-01T04:58:07;4.75;4.00;3.50
76784;PMS7003;66893;44.316;0.092;2023-02-01T05:00:32;4.00;4.00;3.50
76784;PMS7003;66893;44.316;0.092;2023-02-01T05:02:58;5.25;5.25;4.00
76784;PMS7003;66893;44.316;0.092;2023-02-01T05:05:23;4.25;4.25;3.25
76784;PMS7003;66893;44.316;0.092;2023-02-01T05:07:49;6.50;4.00;3.00
76784;PMS7003;66893;44.316;0.092;2023-02-01T05:10:15;4.00;4.00;3.75
76784;PMS7003;66893;44.316;0.092;2023-02-01T05:12:42;5.00;3.75;3.00
76784;PMS7003;66893;44.316;0.092;2023-02-01T05:15:27;4.00;4.00;3.00
76784;PMS7003;66893;44.316;0.092;2023-02-01T05:17:53;4.00;4.00;3.00
76784;PMS7003;66893;44.316;0.092;2023-02-01T05:20:19;5.00;4.00;3.00
76784;PMS7003;66893;44.316;0.092;2023-02-01T05:22:44;4.00;3.25;3.00
76784;PMS7003;66893;44.316;0.092;2023-02-01T05:25:09;5.00;4.25;3.00
76784;PMS7003;66893;44.316;0.092;2023-02-01T05:27:35;4.00;4.00;3.00
76784;PMS7003;66893;44.316;0.092;2023-02-01T05:30:02;5.25;4.25;3.25
76784;PMS7003;66893;44.316;0.092;2023-02-01T05:32:31;4.25;3.75;3.00
76784;PMS7003;66893;44.316;0.092;2023-02-01T05:34:56;7.75;6.00;4.00
76784;PMS7003;66893;44.316;0.092;2023-02-01T05:37:22;5.25;5.25;4.00
76784;PMS7003;66893;44.316;0.092;2023-02-01T05:39:47;7.25;4.25;3.00
76784;PMS7003;66893;44.316;0.092;2023-02-01T05:42:13;5.50;4.00;3.25
76784;PMS7003;66893;44.316;0.092;2023-02-01T05:44:38;7.00;5.50;5.00
76784;PMS7003;66893;44.316;0.092;2023-02-01T05:47:04;4.00;4.00;3.75
76784;PMS7003;66893;44.316;0.092;2023-02-01T05:49:29;7.75;5.25;4.50
76784;PMS7003;66893;44.316;0.092;2023-02-01T05:51:55;7.25;6.00;4.75
76784;PMS7003;66893;44.316;0.092;2023-02-01T05:54:20;7.75;6.75;5.00
76784;PMS7003;66893;44.316;0.092;2023-02-01T05:56:46;11.50;8.00;5.00
76784;PMS7003;66893;44.316;0.092;2023-02-01T05:59:11;7.00;7.00;4.75
76784;PMS7003;66893;44.316;0.092;2023-02-01T06:01:37;5.00;5.00;4.00
76784;PMS7003;66893;44.316;0.092;2023-02-01T06:04:02;7.75;7.00;6.00
76784;PMS7003;66893;44.316;0.092;2023-02-01T06:06:27;13.25;8.00;5.25
76784;PMS7003;66893;44.316;0.092;2023-02-01T06:08:53;11.25;8.75;7.00
76784;PMS7003;66893;44.316;0.092;2023-02-01T06:11:18;8.50;8.00;5.50
76784;PMS7003;66893;44.316;0.092;2023-02-01T06:13:44;9.00;9.00;5.75
76784;PMS7003;66893;44.316;0.092;2023-02-01T06:16:09;8.00;7.00;6.50
76784;PMS7003;66893;44.316;0.092;2023-02-01T06:18:35;12.25;10.00;6.50
76784;PMS7003;66893;44.316;0.092;2023-02-01T06:21:00;13.25;11.50;8.50
76784;PMS7003;66893;44.316;0.092;2023-02-01T06:23:26;16.50;14.00;10.00
76784;PMS7003;66893;44.316;0.092;2023-02-01T06:25:59;13.00;11.00;9.00
76784;PMS7003;66893;44.316;0.092;2023-02-01T06:28:29;16.25;15.50;10.75
76784;PMS7003;66893;44.316;0.092;2023-02-01T06:30:55;18.75;16.00;10.25
76784;PMS7003;66893;44.316;0.092;2023-02-01T06:33:22;13.75;12.25;8.75
76784;PMS7003;66893;44.316;0.092;2023-02-01T06:35:49;23.50;20.00;12.00
76784;PMS7003;66893;44.316;0.092;2023-02-01T06:38:21;25.00;22.25;16.00
76784;PMS7003;66893;44.316;0.092;2023-02-01T06:40:51;23.25;21.00;16.25
76784;PMS7003;66893;44.316;0.092;2023-02-01T06:43:17;21.75;19.00;12.75
76784;PMS7003;66893;44.316;0.092;2023-02-01T06:45:43;19.75;18.75;14.00
76784;PMS7003;66893;44.316;0.092;2023-02-01T06:48:08;21.75;19.00;15.00
76784;PMS7003;66893;44.316;0.092;2023-02-01T06:50:34;21.00;20.00;16.00
76784;PMS7003;66893;44.316;0.092;2023-02-01T06:53:00;20.50;17.00;12.25
76784;PMS7003;66893;44.316;0.092;2023-02-01T06:55:25;17.75;16.75;14.00
76784;PMS7003;66893;44.316;0.092;2023-02-01T06:57:54;18.25;16.25;11.75
76784;PMS7003;66893;44.316;0.092;2023-02-01T07:00:21;16.25;13.75;11.50
76784;PMS7003;66893;44.316;0.092;2023-02-01T07:02:47;17.00;15.00;10.50
76784;PMS7003;66893;44.316;0.092;2023-02-01T07:05:13;10.25;8.00;5.50
76784;PMS7003;66893;44.316;0.092;2023-02-01T07:07:38;19.75;15.75;11.50
76784;PMS7003;66893;44.316;0.092;2023-02-01T07:10:04;17.75;16.75;12.50
76784;PMS7003;66893;44.316;0.092;2023-02-01T07:12:29;19.25;15.25;11.25
76784;PMS7003;66893;44.316;0.092;2023-02-01T07:14:55;19.50;14.50;9.75
76784;PMS7003;66893;44.316;0.092;2023-02-01T07:17:21;19.25;17.25;11.25
76784;PMS7003;66893;44.316;0.092;2023-02-01T07:19:47;18.25;17.00;12.00
76784;PMS7003;66893;44.316;0.092;2023-02-01T07:22:12;15.25;15.00;10.50
76784;PMS7003;66893;44.316;0.092;2023-02-01T07:24:40;19.00;18.00;11.75
76784;PMS7003;66893;44.316;0.092;2023-02-01T07:27:06;18.25;17.75;12.75
76784;PMS7003;66893;44.316;0.092;2023-02-01T07:29:31;17.00;16.50;12.00
76784;PMS7003;66893;44.316;0.092;2023-02-01T07:31:57;22.00;17.25;12.00
76784;PMS7003;66893;44.316;0.092;2023-02-01T07:34:23;19.75;16.00;12.25
76784;PMS7003;66893;44.316;0.092;2023-02-01T07:36:48;21.75;18.75;14.00
76784;PMS7003;66893;44.316;0.092;2023-02-01T07:39:13;20.00;18.00;12.50
76784;PMS7003;66893;44.316;0.092;2023-02-01T07:41:39;28.00;21.25;15.00
76784;PMS7003;66893;44.316;0.092;2023-02-01T07:44:04;22.00;20.25;15.00
76784;PMS7003;66893;44.316;0.092;2023-02-01T07:46:30;23.25;21.75;15.50
76784;PMS7003;66893;44.316;0.092;2023-02-01T07:48:55;23.50;22.75;17.00
76784;PMS7003;66893;44.316;0.092;2023-02-01T07:51:21;27.25;19.75;16.00
76784;PMS7003;66893;44.316;0.092;2023-02-01T07:53:46;22.75;21.25;16.25
76784;PMS7003;66893;44.316;0.092;2023-02-01T07:56:16;27.00;21.50;16.25
76784;PMS7003;66893;44.316;0.092;2023-02-01T07:58:47;24.50;22.75;17.75
76784;PMS7003;66893;44.316;0.092;2023-02-01T08:01:14;38.00;33.50;21.00
76784;PMS7003;66893;44.316;0.092;2023-02-01T08:03:50;23.25;18.75;12.00
76784;PMS7003;66893;44.316;0.092;2023-02-01T08:06:18;34.75;30.25;18.50
76784;PMS7003;66893;44.316;0.092;2023-02-01T08:08:44;34.00;30.00;19.50
76784;PMS7003;66893;44.316;0.092;2023-02-01T08:11:11;30.75;25.50;17.75
76784;PMS7003;66893;44.316;0.092;2023-02-01T08:13:38;24.50;24.25;17.75
76784;PMS7003;66893;44.316;0.092;2023-02-01T08:16:04;28.50;25.75;16.00
76784;PMS7003;66893;44.316;0.092;2023-02-01T08:18:31;23.75;20.00;15.25
76784;PMS7003;66893;44.316;0.092;2023-02-01T08:21:02;21.75;18.50;14.50
76784;PMS7003;66893;44.316;0.092;2023-02-01T08:23:32;24.00;18.75;14.75
76784;PMS7003;66893;44.316;0.092;2023-02-01T08:28:32;19.25;17.00;14.00
76784;PMS7003;66893;44.316;0.092;2023-02-01T08:30:57;19.50;19.00;14.75
76784;PMS7003;66893;44.316;0.092;2023-02-01T08:33:23;18.25;15.75;11.75
76784;PMS7003;66893;44.316;0.092;2023-02-01T08:35:48;18.25;17.00;12.00
76784;PMS7003;66893;44.316;0.092;2023-02-01T08:38:14;17.50;16.25;12.25
76784;PMS7003;66893;44.316;0.092;2023-02-01T08:40:39;16.25;14.50;10.75
76784;PMS7003;66893;44.316;0.092;2023-02-01T08:43:06;14.75;11.75;9.00
76784;PMS7003;66893;44.316;0.092;2023-02-01T08:45:32;18.25;16.25;10.75
76784;PMS7003;66893;44.316;0.092;2023-02-01T08:47:59;17.25;14.50;10.25
76784;PMS7003;66893;44.316;0.092;2023-02-01T08:50:24;15.00;14.00;10.50
76784;PMS7003;66893;44.316;0.092;2023-02-01T08:52:50;13.25;10.25;8.75
76784;PMS7003;66893;44.316;0.092;2023-02-01T08:55:16;11.00;11.00;8.25
76784;PMS7003;66893;44.316;0.092;2023-02-01T08:57:42;15.25;11.75;7.75
76784;PMS7003;66893;44.316;0.092;2023-02-01T09:00:09;9.50;8.75;7.50
76784;PMS7003;66893;44.316;0.092;2023-02-01T09:02:37;10.00;10.00;7.75
76784;PMS7003;66893;44.316;0.092;2023-02-01T09:05:03;10.50;10.50;8.50
76784;PMS7003;66893;44.316;0.092;2023-02-01T09:07:29;17.50;13.50;9.75
76784;PMS7003;66893;44.316;0.092;2023-02-01T09:09:55;15.25;12.25;9.25
76784;PMS7003;66893;44.316;0.092;2023-02-01T09:12:21;13.25;12.75;9.25
76784;PMS7003;66893;44.316;0.092;2023-02-01T09:14:47;10.75;9.25;7.50
76784;PMS7003;66893;44.316;0.092;2023-02-01T09:17:13;15.25;12.00;9.00
76784;PMS7003;66893;44.316;0.092;2023-02-01T09:19:39;11.25;11.25;8.00
76784;PMS7003;66893;44.316;0.092;2023-02-01T09:22:04;13.00;10.75;8.25
76784;PMS7003;66893;44.316;0.092;2023-02-01T09:24:30;15.50;10.50;8.50
76784;PMS7003;66893;44.316;0.092;2023-02-01T09:26:56;12.50;11.00;8.75
76784;PMS7003;66893;44.316;0.092;2023-02-01T09:29:21;13.25;12.75;9.50
76784;PMS7003;66893;44.316;0.092;2023-02-01T09:31:47;12.50;12.00;9.00
76784;PMS7003;66893;44.316;0.092;2023-02-01T09:34:12;11.50;10.00;7.75
76784;PMS7003;66893;44.316;0.092;2023-02-01T09:36:38;12.50;11.25;9.00
76784;PMS7003;66893;44.316;0.092;2023-02-01T09:39:03;10.00;10.00;8.50
76784;PMS7003;66893;44.316;0.092;2023-02-01T09:46:42;17.25;12.00;9.00
76784;PMS7003;66893;44.316;0.092;2023-02-01T09:49:16;15.25;12.25;11.00
76784;PMS7003;66893;44.316;0.092;2023-02-01T09:51:48;13.00;11.75;9.50
76784;PMS7003;66893;44.316;0.092;2023-02-01T09:54:17;17.25;12.50;8.25
76784;PMS7003;66893;44.316;0.092;2023-02-01T09:56:47;19.75;12.50;9.50
76784;PMS7003;66893;44.316;0.092;2023-02-01T09:59:19;15.25;13.25;10.00
76784;PMS7003;66893;44.316;0.092;2023-02-01T10:01:48;15.75;13.25;8.75
76784;PMS7003;66893;44.316;0.092;2023-02-01T10:04:14;13.25;11.50;9.00
76784;PMS7003;66893;44.316;0.092;2023-02-01T10:09:50;18.50;15.50;11.25
76784;PMS7003;66893;44.316;0.092;2023-02-01T10:15:30;32.75;25.25;18.00
76784;PMS7003;66893;44.316;0.092;2023-02-01T10:21:07;28.00;22.75;16.50
76784;PMS7003;66893;44.316;0.092;2023-02-01T10:26:24;37.50;32.50;19.75
76784;PMS7003;66893;44.316;0.092;2023-02-01T10:28:52;41.00;33.50;20.75
76784;PMS7003;66893;44.316;0.092;2023-02-01T10:31:24;42.25;35.00;22.75
76784;PMS7003;66893;44.316;0.092;2023-02-01T10:34:00;43.50;35.75;23.00
76784;PMS7003;66893;44.316;0.092;2023-02-01T10:36:34;50.75;40.50;24.50
76784;PMS7003;66893;44.316;0.092;2023-02-01T10:39:03;52.75;41.75;26.00
76784;PMS7003;66893;44.316;0.092;2023-02-01T10:41:33;51.00;41.50;26.00
76784;PMS7003;66893;44.316;0.092;2023-02-01T10:44:02;61.00;46.50;30.00
76784;PMS7003;66893;44.316;0.092;2023-02-01T10:46:31;68.25;53.75;33.00
76784;PMS7003;66893;44.316;0.092;2023-02-01T10:48:58;71.50;54.25;33.25
76784;PMS7003;66893;44.316;0.092;2023-02-01T10:51:28;61.25;47.75;29.50
76784;PMS7003;66893;44.316;0.092;2023-02-01T10:54:03;63.75;50.50;32.25
76784;PMS7003;66893;44.316;0.092;2023-02-01T10:56:38;56.50;45.50;28.75
76784;PMS7003;66893;44.316;0.092;2023-02-01T10:59:05;65.25;51.25;33.25
76784;PMS7003;66893;44.316;0.092;2023-02-01T11:01:40;54.00;43.25;30.00
76784;PMS7003;66893;44.316;0.092;2023-02-01T11:04:13;45.00;34.00;21.00
76784;PMS7003;66893;44.316;0.092;2023-02-01T11:06:41;27.25;24.25;17.00
76784;PMS7003;66893;44.316;0.092;2023-02-01T11:11:52;22.25;21.00;15.25
76784;PMS7003;66893;44.316;0.092;2023-02-01T11:16:58;73.00;56.25;34.50
76784;PMS7003;66893;44.316;0.092;2023-02-01T11:20:02;50.75;39.25;27.50
76784;PMS7003;66893;44.316;0.092;2023-02-01T11:22:30;41.50;36.50;22.50
76784;PMS7003;66893;44.316;0.092;2023-02-01T11:24:56;39.25;32.00;20.00
76784;PMS7003;66893;44.316;0.092;2023-02-01T11:27:23;37.75;32.00;22.00
76784;PMS7003;66893;44.316;0.092;2023-02-01T11:29:50;53.75;40.50;25.75
76784;PMS7003;66893;44.316;0.092;2023-02-01T11:32:19;61.00;47.50;30.00
76784;PMS7003;66893;44.316;0.092;2023-02-01T11:37:23;53.00;42.00;26.75
76784;PMS7003;66893;44.316;0.092;2023-02-01T11:39:56;50.50;41.50;25.75
76784;PMS7003;66893;44.316;0.092;2023-02-01T11:42:23;57.50;44.00;29.25
76784;PMS7003;66893;44.316;0.092;2023-02-01T11:44:50;66.50;53.75;35.00
76784;PMS7003;66893;44.316;0.092;2023-02-01T11:49:46;57.75;45.00;28.75
76784;PMS7003;66893;44.316;0.092;2023-02-01T11:52:59;52.00;41.25;27.25
76784;PMS7003;66893;44.316;0.092;2023-02-01T12:03:03;40.50;31.00;20.25
76784;PMS7003;66893;44.316;0.092;2023-02-01T12:05:46;44.50;31.00;20.50
76784;PMS7003;66893;44.316;0.092;2023-02-01T12:08:28;39.75;31.75;20.50
76784;PMS7003;66893;44.316;0.092;2023-02-01T12:33:11;27.25;23.50;18.25
76784;PMS7003;66893;44.316;0.092;2023-02-01T12:39:24;33.00;23.25;16.00
76784;PMS7003;66893;44.316;0.092;2023-02-01T12:42:02;30.50;22.25;16.25
76784;PMS7003;66893;44.316;0.092;2023-02-01T12:44:40;29.75;26.25;16.00
76784;PMS7003;66893;44.316;0.092;2023-02-01T12:52:27;26.25;19.50;14.00
76784;PMS7003;66893;44.316;0.092;2023-02-01T12:57:32;25.00;22.50;15.25
76784;PMS7003;66893;44.316;0.092;2023-02-01T13:00:02;24.25;19.25;14.00
76784;PMS7003;66893;44.316;0.092;2023-02-01T13:05:22;24.00;17.00;12.75
76784;PMS7003;66893;44.316;0.092;2023-02-01T13:08:17;23.00;19.75;13.00
76784;PMS7003;66893;44.316;0.092;2023-02-01T13:10:57;19.50;18.00;13.00
76784;PMS7003;66893;44.316;0.092;2023-02-01T13:18:35;18.00;17.00;11.00
76784;PMS7003;66893;44.316;0.092;2023-02-01T13:21:14;19.75;17.00;11.75
76784;PMS7003;66893;44.316;0.092;2023-02-01T13:23:43;19.50;16.50;10.50
76784;PMS7003;66893;44.316;0.092;2023-02-01T13:26:11;14.50;12.75;9.50
76784;PMS7003;66893;44.316;0.092;2023-02-01T13:42:22;5.50;5.50;4.50
76784;PMS7003;66893;44.316;0.092;2023-02-01T13:44:52;11.50;8.50;5.25
76784;PMS7003;66893;44.316;0.092;2023-02-01T13:49:51;6.25;6.00;4.75
76784;PMS7003;66893;44.316;0.092;2023-02-01T13:52:27;5.25;4.50;3.00
76784;PMS7003;66893;44.316;0.092;2023-02-01T13:57:50;6.00;6.00;4.50
76784;PMS7003;66893;44.316;0.092;2023-02-01T14:00:25;8.50;5.75;4.75
76784;PMS7003;66893;44.316;0.092;2023-02-01T14:26:49;5.00;5.00;4.25
76784;PMS7003;66893;44.316;0.092;2023-02-01T14:34:36;5.00;5.00;4.25
76784;PMS7003;66893;44.316;0.092;2023-02-01T14:39:54;5.75;4.00;2.50
76784;PMS7003;66893;44.316;0.092;2023-02-01T15:01:05;7.00;5.00;4.00
76784;PMS7003;66893;44.316;0.092;2023-02-01T15:03:35;4.75;4.75;3.25
76784;PMS7003;66893;44.316;0.092;2023-02-01T15:09:21;6.75;5.75;3.75
76784;PMS7003;66893;44.316;0.092;2023-02-01T15:11:55;4.25;3.00;2.00
76784;PMS7003;66893;44.316;0.092;2023-02-01T15:14:27;5.00;5.00;4.00
76784;PMS7003;66893;44.316;0.092;2023-02-01T15:16:54;4.00;4.00;3.00
76784;PMS7003;66893;44.316;0.092;2023-02-01T15:19:24;3.75;3.75;3.75
76784;PMS7003;66893;44.316;0.092;2023-02-01T15:21:52;4.00;4.00;3.00
76784;PMS7003;66893;44.316;0.092;2023-02-01T15:26:54;3.50;3.00;3.00
76784;PMS7003;66893;44.316;0.092;2023-02-01T15:29:21;6.00;5.00;3.50
76784;PMS7003;66893;44.316;0.092;2023-02-01T15:31:51;5.25;4.00;4.00
76784;PMS7003;66893;44.316;0.092;2023-02-01T15:34:18;4.25;2.75;2.50
76784;PMS7003;66893;44.316;0.092;2023-02-01T15:36:44;6.50;4.50;3.25
76784;PMS7003;66893;44.316;0.092;2023-02-01T15:41:45;5.00;4.00;3.00
76784;PMS7003;66893;44.316;0.092;2023-02-01T15:44:21;6.00;3.00;2.00
76784;PMS7003;66893;44.316;0.092;2023-02-01T15:46:59;4.25;4.00;3.00
76784;PMS7003;66893;44.316;0.092;2023-02-01T15:49:40;4.00;3.50;3.00
76784;PMS7003;66893;44.316;0.092;2023-02-01T15:52:13;4.50;3.75;3.00
76784;PMS7003;66893;44.316;0.092;2023-02-01T15:54:47;2.50;2.50;2.00
76784;PMS7003;66893;44.316;0.092;2023-02-01T15:57:35;4.25;2.50;2.00
76784;PMS7003;66893;44.316;0.092;2023-02-01T16:02:53;6.00;4.25;3.25
76784;PMS7003;66893;44.316;0.092;2023-02-01T16:08:14;5.00;5.00;4.00
76784;PMS7003;66893;44.316;0.092;2023-02-01T16:10:43;3.00;3.00;2.50
76784;PMS7003;66893;44.316;0.092;2023-02-01T16:13:11;3.75;3.75;3.00
76784;PMS7003;66893;44.316;0.092;2023-02-01T16:15:37;4.50;2.75;2.75
76784;PMS7003;66893;44.316;0.092;2023-02-01T16:18:03;2.25;2.25;2.00
76784;PMS7003;66893;44.316;0.092;2023-02-01T16:20:29;4.00;4.00;3.00
76784;PMS7003;66893;44.316;0.092;2023-02-01T16:22:55;2.50;2.25;1.75
76784;PMS7003;66893;44.316;0.092;2023-02-01T16:25:21;3.50;3.50;3.00
76784;PMS7003;66893;44.316;0.092;2023-02-01T16:27:46;4.00;3.75;3.00
76784;PMS7003;66893;44.316;0.092;2023-02-01T16:30:12;4.00;4.00;3.00
76784;PMS7003;66893;44.316;0.092;2023-02-01T16:32:37;5.25;4.00;3.25
76784;PMS7003;66893;44.316;0.092;2023-02-01T16:35:18;6.25;5.25;4.00
76784;PMS7003;66893;44.316;0.092;2023-02-01T16:37:50;4.50;4.00;3.25
76784;PMS7003;66893;44.316;0.092;2023-02-01T16:40:16;5.75;3.50;2.75
76784;PMS7003;66893;44.316;0.092;2023-02-01T16:42:44;4.00;4.00;3.75
76784;PMS7003;66893;44.316;0.092;2023-02-01T16:45:11;5.75;3.00;2.50
76784;PMS7003;66893;44.316;0.092;2023-02-01T16:47:37;4.50;3.00;3.00
76784;PMS7003;66893;44.316;0.092;2023-02-01T16:50:04;3.00;3.00;2.75
76784;PMS7003;66893;44.316;0.092;2023-02-01T16:52:39;3.25;2.75;2.00
76784;PMS7003;66893;44.316;0.092;2023-02-01T16:55:10;4.25;2.50;1.75
76784;PMS7003;66893;44.316;0.092;2023-02-01T16:57:39;4.50;4.00;3.00
76784;PMS7003;66893;44.316;0.092;2023-02-01T17:00:05;3.25;3.00;2.25
76784;PMS7003;66893;44.316;0.092;2023-02-01T17:02:31;3.25;3.00;2.50
76784;PMS7003;66893;44.316;0.092;2023-02-01T17:04:57;4.25;3.50;2.75
76784;PMS7003;66893;44.316;0.092;2023-02-01T17:07:22;5.00;4.00;3.00
76784;PMS7003;66893;44.316;0.092;2023-02-01T17:09:48;3.00;3.00;2.75
76784;PMS7003;66893;44.316;0.092;2023-02-01T17:12:29;3.50;3.50;3.00
76784;PMS7003;66893;44.316;0.092;2023-02-01T17:14:56;8.25;3.00;2.75
76784;PMS7003;66893;44.316;0.092;2023-02-01T17:17:23;5.75;5.75;3.25
76784;PMS7003;66893;44.316;0.092;2023-02-01T17:19:50;5.25;5.25;3.25
76784;PMS7003;66893;44.316;0.092;2023-02-01T17:22:21;5.00;4.00;3.50
76784;PMS7003;66893;44.316;0.092;2023-02-01T17:24:47;4.25;4.25;3.25
76784;PMS7003;66893;44.316;0.092;2023-02-01T17:27:13;6.75;4.25;3.75
76784;PMS7003;66893;44.316;0.092;2023-02-01T17:29:39;5.50;3.75;3.00
76784;PMS7003;66893;44.316;0.092;2023-02-01T17:32:06;5.50;5.25;4.00
76784;PMS7003;66893;44.316;0.092;2023-02-01T17:34:50;6.50;4.25;3.50